Time;durP1;ratioP1;P1;durP2;ratioP2;P2;SDS_P1;SDS_P2;PMS_P1;PMS_P2;Temp;Humidity;BMP_temperature;BMP_pressure;BME280_temperature;BME280_humidity;BME280_pressure;Samples;Min_cycle;Max_cycle;Signal;HPM_P1;HPM_P2
2023/04/02 04:41:36;;;;;;;8.02;1.08;;;13.50;62.30;;;;;;5770869;23;20028;-76
2023/04/02 04:44:07;;;;;;;15.27;1.60;;;13.60;62.30;;;;;;4830406;29;20367;-76
2023/04/02 04:46:54;;;;;;;12.32;1.58;;;13.70;61.50;;;;;;4831805;29;20057;-77
2023/04/02 04:49:24;;;;;;;21.35;2.30;;;13.90;62.10;;;;;;4810760;29;20066;-77
2023/04/02 04:51:53;;;;;;;11.70;1.52;;;14.00;62.00;;;;;;4810936;29;20050;-78
2023/04/02 04:54:19;;;;;;;14.43;2.33;;;14.10;61.90;;;;;;4837737;29;20391;-73
2023/04/02 04:56:48;;;;;;;18.00;2.20;;;14.10;62.10;;;;;;4828743;29;20049;-76
2023/04/02 04:59:26;;;;;;;15.13;2.20;;;14.20;62.10;;;;;;4813907;29;20093;-75
2023/04/02 05:01:54;;;;;;;15.68;2.30;;;14.30;62.10;;;;;;4822792;29;20187;-78
2023/04/02 05:04:34;;;;;;;11.90;1.85;;;14.40;62.20;;;;;;4826081;29;20259;-77
2023/04/02 05:07:27;;;;;;;10.88;1.63;;;14.40;62.20;;;;;;4810274;29;20054;-76
2023/04/02 05:10:16;;;;;;;8.77;1.73;;;14.50;62.20;;;;;;4823535;29;20137;-76
2023/04/02 05:13:00;;;;;;;12.88;1.77;;;14.60;62.40;;;;;;4815340;29;20073;-77
2023/04/02 05:15:41;;;;;;;14.10;2.10;;;14.70;62.30;;;;;;4844615;29;20133;-77
2023/04/02 05:18:25;;;;;;;12.77;1.70;;;14.80;62.50;;;;;;4826479;29;20058;-77
2023/04/02 05:21:05;;;;;;;14.52;2.30;;;14.90;62.40;;;;;;4826455;29;20049;-75
2023/04/02 05:23:43;;;;;;;10.27;1.50;;;14.90;62.20;;;;;;4826544;29;20042;-77
2023/04/02 05:26:30;;;;;;;14.68;2.08;;;15.00;62.20;;;;;;4795316;29;20126;-78
2023/04/02 05:29:19;;;;;;;16.08;2.20;;;15.00;62.10;;;;;;4826350;29;20057;-77
2023/04/02 05:31:54;;;;;;;18.83;2.33;;;15.10;62.20;;;;;;4833027;29;20074;-78
2023/04/02 05:34:26;;;;;;;17.60;2.00;;;15.10;60.50;;;;;;4843677;29;20105;-77
2023/04/02 05:36:54;;;;;;;12.23;1.63;;;15.10;59.70;;;;;;4831516;29;20062;-79
2023/04/02 05:39:22;;;;;;;10.35;3.03;;;15.10;60.10;;;;;;4809814;29;20338;-77
2023/04/02 05:42:04;;;;;;;18.00;2.30;;;15.10;60.70;;;;;;4810013;29;20046;-80
2023/04/02 05:44:37;;;;;;;18.02;2.17;;;15.10;61.10;;;;;;4810428;29;20093;-78
2023/04/02 05:47:13;;;;;;;24.45;2.47;;;15.20;61.60;;;;;;4834726;29;20057;-78
2023/04/02 05:49:52;;;;;;;17.05;2.67;;;15.20;58.10;;;;;;4843752;29;20133;-78
2023/04/02 05:52:30;;;;;;;23.05;2.63;;;15.20;61.80;;;;;;4820750;29;20476;-78
2023/04/02 05:55:15;;;;;;;20.23;3.33;;;15.10;58.30;;;;;;4825907;29;20046;-82
2023/04/02 05:57:48;;;;;;;16.08;2.70;;;15.20;61.60;;;;;;4816823;29;20173;-81
2023/04/02 06:00:24;;;;;;;22.80;2.53;;;15.20;61.40;;;;;;4841791;29;20062;-78
2023/04/02 06:02:58;;;;;;;17.05;2.25;;;15.30;61.30;;;;;;4817258;29;20486;-80
2023/04/02 06:05:38;;;;;;;14.43;2.47;;;15.40;61.30;;;;;;4831499;29;20369;-81
2023/04/02 06:08:06;;;;;;;16.10;2.05;;;15.40;61.20;;;;;;4839348;29;20151;-81
2023/04/02 06:10:40;;;;;;;16.00;1.85;;;15.50;61.10;;;;;;4827737;29;20053;-77
2023/04/02 06:13:07;;;;;;;;;;;15.50;61.00;;;;;;4844359;29;20160;-76
2023/04/02 06:15:35;;;;;;;17.80;1.90;;;15.50;60.90;;;;;;4827624;29;20294;-75
2023/04/02 06:18:07;;;;;;;13.15;2.42;;;15.60;61.00;;;;;;4843284;29;20224;-77
2023/04/02 06:20:33;;;;;;;11.20;1.20;;;15.60;61.10;;;;;;4843862;29;20050;-77
2023/04/02 06:23:32;;;;;;;12.77;2.10;;;15.70;61.00;;;;;;4843798;29;20062;-75
2023/04/02 06:26:03;;;;;;;12.73;1.15;;;15.70;60.90;;;;;;4838910;29;20061;-73
2023/04/02 06:28:40;;;;;;;9.63;1.17;;;15.40;57.00;;;;;;4825748;29;20630;-77
2023/04/02 06:31:13;;;;;;;11.18;1.65;;;15.50;61.50;;;;;;4809442;29;20372;-77
2023/04/02 06:33:39;;;;;;;7.13;1.27;;;15.60;60.90;;;;;;4837600;29;20497;-72
2023/04/02 06:36:06;;;;;;;13.73;1.08;;;15.60;60.90;;;;;;4820975;29;20054;-76
2023/04/02 06:38:35;;;;;;;12.98;1.92;;;15.60;61.10;;;;;;4809394;29;20061;-77
2023/04/02 06:41:11;;;;;;;10.98;1.65;;;15.70;60.70;;;;;;4825746;29;20430;-76
2023/04/02 06:43:56;;;;;;;23.15;2.45;;;15.70;59.70;;;;;;4809090;29;20069;-79
2023/04/02 06:46:27;;;;;;;26.08;2.72;;;15.70;59.10;;;;;;4829027;29;20046;-76
2023/04/02 06:49:10;;;;;;;16.02;1.63;;;15.70;59.60;;;;;;4829222;29;20191;-78
2023/04/02 06:51:39;;;;;;;15.35;1.80;;;15.70;60.00;;;;;;4828737;29;20050;-76
2023/04/02 06:54:05;;;;;;;18.52;1.98;;;15.80;60.20;;;;;;4828443;29;20051;-78
2023/04/02 06:56:47;;;;;;;17.88;1.75;;;15.80;60.50;;;;;;4828324;29;20054;-75
2023/04/02 06:59:20;;;;;;;23.23;2.30;;;15.90;60.60;;;;;;4827562;29;20391;-77
2023/04/02 07:01:51;;;;;;;21.10;3.08;;;15.90;60.90;;;;;;4828488;29;20110;-76
2023/04/02 07:04:19;;;;;;;25.17;2.85;;;15.90;60.90;;;;;;4828190;29;20448;-73
2023/04/02 07:06:44;;;;;;;40.03;3.55;;;15.90;61.20;;;;;;4813119;29;20486;-80
2023/04/02 07:09:10;;;;;;;23.15;2.75;;;15.90;61.30;;;;;;4797292;29;20047;-79
2023/04/02 07:11:36;;;;;;;28.95;3.70;;;15.90;60.80;;;;;;4828267;29;20046;-80
2023/04/02 07:14:02;;;;;;;29.00;3.55;;;15.90;60.40;;;;;;4812448;29;20046;-77
2023/04/02 07:16:31;;;;;;;35.08;3.63;;;15.90;59.60;;;;;;4828232;29;20050;-77
2023/04/02 07:18:59;;;;;;;27.23;3.25;;;15.80;58.80;;;;;;4827757;29;20046;-77
2023/04/02 07:21:26;;;;;;;27.17;2.67;;;15.80;58.90;;;;;;4812936;29;20061;-77
2023/04/02 07:23:53;;;;;;;23.35;3.03;;;15.70;58.90;;;;;;4815434;29;20366;-81
2023/04/02 07:26:22;;;;;;;24.05;3.20;;;15.70;58.30;;;;;;4826537;29;20058;-80
2023/04/02 07:28:49;;;;;;;15.27;2.72;;;15.70;57.30;;;;;;4799480;29;20127;-77
2023/04/02 07:31:16;;;;;;;18.27;2.05;;;15.70;57.00;;;;;;4807674;29;20058;-80
2023/04/02 07:33:42;;;;;;;18.98;2.00;;;15.60;56.60;;;;;;4768301;29;20130;-79
2023/04/02 07:36:14;;;;;;;13.95;2.53;;;15.60;56.60;;;;;;4807813;29;20062;-79
2023/04/02 07:38:40;;;;;;;23.00;1.95;;;15.60;56.90;;;;;;4792887;29;20070;-79
2023/04/02 07:41:06;;;;;;;16.25;1.77;;;15.50;57.00;;;;;;4808186;29;20134;-81
2023/04/02 07:43:32;;;;;;;16.75;2.08;;;15.50;57.30;;;;;;4776354;30;20572;-79
2023/04/02 07:45:58;;;;;;;16.98;1.90;;;15.40;57.40;;;;;;4774698;30;20091;-79
2023/04/02 07:48:24;;;;;;;13.68;2.10;;;15.40;57.70;;;;;;4775123;30;20154;-79
2023/04/02 07:50:50;;;;;;;9.73;1.88;;;15.40;57.90;;;;;;4783137;29;20149;-81
2023/04/02 07:53:34;;;;;;;10.05;1.25;;;15.30;58.00;;;;;;4789003;30;20051;-79
2023/04/02 07:56:01;;;;;;;13.88;1.85;;;15.30;58.00;;;;;;4806739;29;20070;-78
2023/04/02 07:58:29;;;;;;;10.38;1.50;;;15.30;58.30;;;;;;4806967;29;20469;-79
2023/04/02 08:00:54;;;;;;;10.45;2.30;;;15.20;58.50;;;;;;4814442;29;20062;-81
2023/04/02 08:03:20;;;;;;;14.20;1.48;;;15.20;58.60;;;;;;4827446;29;20094;-82
2023/04/02 08:05:53;;;;;;;13.52;1.17;;;15.20;58.70;;;;;;4827728;29;20194;-78
2023/04/02 08:08:20;;;;;;;11.95;2.20;;;15.20;59.00;;;;;;4811757;29;20126;-81
2023/04/02 08:10:46;;;;;;;19.10;1.77;;;15.10;59.50;;;;;;4827530;29;20533;-78
2023/04/02 08:13:13;;;;;;;14.50;1.50;;;15.10;59.70;;;;;;4810711;29;20047;-79
2023/04/02 08:15:39;;;;;;;14.95;1.50;;;15.00;59.80;;;;;;4827098;29;20086;-77
2023/04/02 08:18:05;;;;;;;9.40;1.00;;;15.00;59.80;;;;;;4827669;29;20094;-79
2023/04/02 08:20:31;;;;;;;9.88;1.38;;;15.00;59.80;;;;;;4827152;29;20085;-80
2023/04/02 08:22:57;;;;;;;7.43;1.23;;;15.00;59.80;;;;;;4827145;29;20057;-79
2023/04/02 08:25:23;;;;;;;11.57;1.70;;;15.00;59.90;;;;;;4827286;29;20073;-79
2023/04/02 08:27:49;;;;;;;9.82;1.25;;;15.00;60.00;;;;;;4810924;29;20078;-80
2023/04/02 08:30:18;;;;;;;4.20;1.27;;;15.00;60.10;;;;;;4796064;29;20084;-81
2023/04/02 08:32:44;;;;;;;10.38;2.10;;;15.00;60.20;;;;;;4826420;29;20145;-82
2023/04/02 08:35:19;;;;;;;16.77;1.95;;;15.00;60.40;;;;;;4810671;29;20056;-81
2023/04/02 08:37:47;;;;;;;15.57;1.58;;;15.00;60.80;;;;;;4810740;29;20130;-81
2023/04/02 08:40:25;;;;;;;16.60;1.67;;;15.00;61.20;;;;;;4795505;29;20110;-79
2023/04/02 08:43:09;;;;;;;15.73;1.98;;;15.00;60.90;;;;;;4795101;29;20064;-77
2023/04/02 08:46:04;;;;;;;16.83;2.17;;;15.10;60.60;;;;;;4827063;29;20065;-77
2023/04/02 08:48:33;;;;;;;15.18;2.00;;;15.10;60.80;;;;;;4804154;29;20072;-75
2023/04/02 08:51:00;;;;;;;21.00;2.35;;;15.30;60.90;;;;;;4827085;29;20058;-78
2023/04/02 08:53:44;;;;;;;18.77;1.85;;;15.40;61.10;;;;;;4826711;29;20058;-80
2023/04/02 08:56:27;;;;;;;16.55;2.42;;;15.50;61.50;;;;;;4810607;29;20046;-77
2023/04/02 08:58:57;;;;;;;20.67;1.63;;;15.60;61.50;;;;;;4810482;29;20057;-81
2023/04/02 09:01:23;;;;;;;20.25;2.72;;;15.60;61.80;;;;;;4826783;29;20054;-78
2023/04/02 09:03:55;;;;;;;27.98;3.47;;;15.60;61.90;;;;;;4810484;29;20384;-84
2023/04/02 09:06:21;;;;;;;28.40;2.78;;;15.60;61.90;;;;;;4810337;29;20050;-78
2023/04/02 09:08:49;;;;;;;19.27;2.83;;;15.60;62.00;;;;;;4810344;29;20061;-78
2023/04/02 09:11:30;;;;;;;28.38;3.13;;;15.60;62.10;;;;;;4826198;29;20103;-77
2023/04/02 09:13:59;;;;;;;20.50;3.08;;;15.60;62.30;;;;;;4824557;29;20371;-77
2023/04/02 09:16:53;;;;;;;27.17;3.22;;;15.60;62.50;;;;;;4810320;29;20101;-78
2023/04/02 09:19:39;;;;;;;27.58;3.67;;;15.60;62.70;;;;;;4810471;29;20070;-79
2023/04/02 09:22:12;;;;;;;44.30;4.22;;;15.60;62.80;;;;;;4809290;29;20138;-78
2023/04/02 09:24:38;;;;;;;;;;;15.60;63.00;;;;;;4822538;29;20506;-76
2023/04/02 09:27:20;;;;;;;34.20;5.13;;;15.60;63.30;;;;;;4809362;29;19960;-77
2023/04/02 09:29:50;;;;;;;32.38;4.57;;;15.70;63.60;;;;;;4824891;29;20570;-76
2023/04/02 09:32:34;;;;;;;27.75;4.00;;;15.60;63.50;;;;;;4825525;29;20054;-78
2023/04/02 09:35:24;;;;;;;50.50;5.05;;;15.70;63.40;;;;;;4826375;29;20057;-77
2023/04/02 09:38:14;;;;;;;39.58;5.18;;;15.80;63.50;;;;;;4810965;29;20054;-76
2023/04/02 09:40:43;;;;;;;30.35;4.65;;;15.80;63.70;;;;;;4809998;29;20141;-78
2023/04/02 09:43:10;;;;;;;48.20;5.47;;;15.90;63.60;;;;;;4825857;29;20077;-77
2023/04/02 09:45:39;;;;;;;31.25;3.85;;;16.00;63.40;;;;;;4825825;29;20042;-79
2023/04/02 09:48:25;;;;;;;30.92;4.10;;;16.10;63.00;;;;;;4795970;29;20485;-77
2023/04/02 09:51:20;;;;;;;27.08;3.38;;;16.10;62.70;;;;;;4826046;29;20054;-75
2023/04/02 09:54:01;;;;;;;25.88;4.30;;;16.20;62.60;;;;;;4824222;29;20070;-77
2023/04/02 09:56:29;;;;;;;27.33;3.67;;;16.10;62.50;;;;;;4826261;29;20373;-77
2023/04/02 09:59:11;;;;;;;19.25;2.92;;;16.10;62.50;;;;;;4809918;29;20490;-77
2023/04/02 10:01:42;;;;;;;20.40;3.00;;;16.10;62.50;;;;;;4825926;29;20081;-77
2023/04/02 10:04:45;;;;;;;19.08;3.40;;;16.10;62.60;;;;;;4826000;29;20372;-78
2023/04/02 10:07:57;;;;;;;16.30;2.58;;;16.00;62.70;;;;;;4825802;29;20054;-77
2023/04/02 10:10:38;;;;;;;15.73;2.60;;;16.00;62.90;;;;;;4835235;29;20409;-77
2023/04/02 10:13:42;;;;;;;18.88;2.33;;;16.00;63.20;;;;;;4828287;29;20069;-78
2023/04/02 10:16:15;;;;;;;12.55;1.98;;;15.90;63.50;;;;;;4828262;29;20050;-78
2023/04/02 10:18:45;;;;;;;16.38;2.63;;;15.90;63.70;;;;;;4828802;29;20053;-78
2023/04/02 10:21:15;;;;;;;11.80;1.52;;;15.90;63.80;;;;;;4847796;29;20061;-76
2023/04/02 10:23:41;;;;;;;13.23;2.28;;;15.80;63.90;;;;;;4847922;29;20069;-78
2023/04/02 10:26:29;;;;;;;10.98;2.22;;;15.80;64.00;;;;;;4847841;29;20050;-77
2023/04/02 10:29:15;;;;;;;9.57;1.35;;;15.80;64.10;;;;;;4813353;29;20069;-80
2023/04/02 10:32:11;;;;;;;9.93;1.50;;;15.80;64.30;;;;;;4829463;29;20065;-76
2023/04/02 10:35:00;;;;;;;8.18;1.20;;;15.80;64.30;;;;;;4815572;29;20093;-77
2023/04/02 10:37:44;;;;;;;11.75;1.88;;;15.80;64.50;;;;;;4847403;29;20054;-76
2023/04/02 10:40:18;;;;;;;;;;;15.70;64.30;;;;;;4848051;29;20058;-77
2023/04/02 10:43:21;;;;;;;9.83;1.27;;;15.70;64.60;;;;;;4847428;29;19947;-78
2023/04/02 10:46:18;;;;;;;6.57;0.82;;;15.70;64.60;;;;;;4847215;29;20057;-78
2023/04/02 10:48:57;;;;;;;8.55;1.20;;;15.70;64.70;;;;;;4847368;29;20093;-78
2023/04/02 10:51:42;;;;;;;10.45;1.73;;;15.60;64.70;;;;;;4846847;29;20054;-76
2023/04/02 10:54:32;;;;;;;9.43;1.10;;;15.70;64.80;;;;;;4847111;29;20054;-76
2023/04/02 10:57:24;;;;;;;9.25;1.50;;;15.60;64.80;;;;;;4847107;29;20058;-78
2023/04/02 11:00:15;;;;;;;8.02;1.88;;;15.60;64.80;;;;;;4830736;29;20054;-77
2023/04/02 11:02:50;;;;;;;11.02;1.63;;;15.60;64.90;;;;;;4846810;29;20459;-76
2023/04/02 11:05:43;;;;;;;9.00;1.48;;;15.60;64.70;;;;;;4847075;29;20046;-78
2023/04/02 11:08:20;;;;;;;8.90;1.43;;;15.60;64.80;;;;;;4815451;29;20049;-75
2023/04/02 11:10:49;;;;;;;6.55;1.80;;;15.60;64.80;;;;;;4846992;29;20194;-78
2023/04/02 11:13:25;;;;;;;10.15;1.65;;;15.60;64.80;;;;;;4846840;29;20136;-77
2023/04/02 11:15:52;;;;;;;7.60;1.13;;;15.50;64.80;;;;;;4847045;29;20049;-76
2023/04/02 11:18:24;;;;;;;6.28;1.30;;;15.50;64.70;;;;;;4846230;29;20110;-77
2023/04/02 11:20:56;;;;;;;6.47;1.10;;;15.50;64.80;;;;;;4846457;29;20049;-77
2023/04/02 11:23:26;;;;;;;4.93;0.82;;;15.50;64.60;;;;;;4847139;29;20057;-77
2023/04/02 11:26:31;;;;;;;9.10;1.27;;;15.50;64.70;;;;;;4846630;29;20070;-76
2023/04/02 11:29:26;;;;;;;6.43;1.10;;;15.50;64.80;;;;;;4846813;29;20045;-77
2023/04/02 11:32:20;;;;;;;5.38;1.13;;;15.50;64.60;;;;;;4829850;29;20054;-78
2023/04/02 11:34:46;;;;;;;4.82;0.80;;;15.50;64.80;;;;;;4846517;29;20073;-79
2023/04/02 11:37:30;;;;;;;5.93;1.25;;;15.50;64.70;;;;;;4846639;29;20054;-78
2023/04/02 11:39:58;;;;;;;4.95;0.80;;;15.50;64.70;;;;;;4846744;29;20089;-75
2023/04/02 11:42:35;;;;;;;2.45;0.50;;;15.50;64.60;;;;;;4829684;29;20130;-77
2023/04/02 11:45:22;;;;;;;6.38;0.77;;;15.40;64.60;;;;;;4846337;29;20214;-77
2023/04/02 11:47:59;;;;;;;8.38;0.80;;;15.40;64.50;;;;;;4846169;29;20049;-76
2023/04/02 11:50:32;;;;;;;5.25;0.85;;;15.40;64.40;;;;;;4845902;29;20065;-76
2023/04/02 11:53:21;;;;;;;6.22;0.95;;;15.40;64.50;;;;;;4846270;29;20377;-76
2023/04/02 11:56:00;;;;;;;10.18;1.25;;;15.40;64.60;;;;;;4846303;29;20045;-76
2023/04/02 11:58:48;;;;;;;9.27;0.73;;;15.40;64.50;;;;;;4830006;29;20061;-76
2023/04/02 12:01:51;;;;;;;3.85;0.70;;;15.40;64.50;;;;;;4845764;29;20146;-76
2023/04/02 12:04:28;;;;;;;2.83;0.57;;;15.40;64.50;;;;;;4846129;29;20050;-77
2023/04/02 12:07:19;;;;;;;5.80;0.80;;;15.30;64.50;;;;;;4845616;29;20054;-79
2023/04/02 12:09:50;;;;;;;4.13;0.60;;;15.30;64.50;;;;;;4827798;29;20061;-76
2023/04/02 12:12:27;;;;;;;3.60;0.60;;;15.30;64.60;;;;;;4827731;29;20050;-75
2023/04/02 12:14:58;;;;;;;4.70;0.70;;;15.30;64.60;;;;;;4827683;29;20498;-77
2023/04/02 12:17:29;;;;;;;3.47;0.50;;;15.30;64.60;;;;;;4797200;29;20054;-76
2023/04/02 12:20:00;;;;;;;4.35;0.60;;;15.30;64.60;;;;;;4827199;29;20535;-77
2023/04/02 12:22:31;;;;;;;3.67;0.70;;;15.20;64.50;;;;;;4827484;29;20061;-76
2023/04/02 12:25:18;;;;;;;3.90;0.60;;;15.20;64.60;;;;;;4827404;29;20047;-76
2023/04/02 12:27:45;;;;;;;3.92;0.57;;;15.30;64.60;;;;;;4827161;29;20114;-77
2023/04/02 12:30:20;;;;;;;2.17;0.50;;;15.20;64.60;;;;;;4811902;29;20069;-77
2023/04/02 12:32:46;;;;;;;1.67;0.75;;;15.20;64.70;;;;;;4833242;29;20049;-78
2023/04/02 12:35:33;;;;;;;3.25;0.60;;;15.20;64.60;;;;;;4845635;29;20056;-77
2023/04/02 12:37:59;;;;;;;2.67;0.40;;;15.20;64.70;;;;;;4829789;29;20379;-76
2023/04/02 12:40:26;;;;;;;3.05;0.50;;;15.20;64.70;;;;;;4845132;29;20058;-76
2023/04/02 12:42:52;;;;;;;3.15;0.68;;;15.20;64.80;;;;;;4844759;29;20479;-76
2023/04/02 12:45:32;;;;;;;5.25;0.47;;;15.20;64.80;;;;;;4845607;29;20092;-77
2023/04/02 12:48:01;;;;;;;4.13;0.75;;;15.10;64.90;;;;;;4845379;29;20065;-75
2023/04/02 12:50:27;;;;;;;3.05;0.40;;;15.10;64.90;;;;;;4845346;29;20109;-76
2023/04/02 12:52:57;;;;;;;2.35;0.30;;;15.10;64.90;;;;;;4845000;29;20064;-78
2023/04/02 12:55:24;;;;;;;3.58;0.43;;;15.10;64.90;;;;;;4845777;29;20360;-77
2023/04/02 12:57:57;;;;;;;1.80;0.45;;;15.10;65.00;;;;;;4844609;29;20050;-78
2023/04/02 13:00:26;;;;;;;2.73;0.50;;;15.00;65.00;;;;;;4845107;29;20104;-78
2023/04/02 13:03:20;;;;;;;1.77;0.30;;;15.10;65.20;;;;;;4845156;29;20744;-76
2023/04/02 13:05:51;;;;;;;1.52;0.43;;;15.10;65.20;;;;;;4844350;29;20144;-76
2023/04/02 13:08:23;;;;;;;2.60;0.38;;;15.10;65.20;;;;;;4845045;29;20121;-78
2023/04/02 13:10:56;;;;;;;2.97;0.40;;;15.10;65.30;;;;;;4845083;29;20145;-75
2023/04/02 13:13:27;;;;;;;1.20;0.50;;;15.00;65.30;;;;;;4844943;29;20467;-78
2023/04/02 13:16:02;;;;;;;2.42;0.47;;;15.00;66.00;;;;;;4845466;29;20050;-76
2023/04/02 13:18:30;;;;;;;1.90;0.30;;;15.00;65.40;;;;;;4844495;29;20467;-76
2023/04/02 13:20:57;;;;;;;1.60;0.35;;;15.00;65.40;;;;;;4844943;29;20058;-76
2023/04/02 13:23:29;;;;;;;3.30;0.52;;;15.00;65.50;;;;;;4844597;29;20057;-75
2023/04/02 13:26:27;;;;;;;1.52;0.28;;;15.00;65.60;;;;;;4844786;29;20065;-75
2023/04/02 13:28:57;;;;;;;2.13;0.43;;;15.00;65.60;;;;;;4844640;29;20050;-78
2023/04/02 13:31:23;;;;;;;2.20;0.35;;;14.90;65.70;;;;;;4844612;29;20042;-76
2023/04/02 13:33:50;;;;;;;2.63;0.82;;;14.90;65.80;;;;;;4844745;29;20050;-78
2023/04/02 13:36:16;;;;;;;1.65;0.45;;;14.90;65.80;;;;;;4844562;29;20069;-77
2023/04/02 13:38:42;;;;;;;3.05;0.32;;;14.90;65.80;;;;;;4844263;29;20392;-76
2023/04/02 13:41:21;;;;;;;2.55;0.30;;;14.90;65.90;;;;;;4844758;29;20046;-76
2023/04/02 13:43:52;;;;;;;1.90;0.45;;;14.90;65.90;;;;;;4828198;29;20066;-76
2023/04/02 13:46:24;;;;;;;0.93;0.25;;;14.90;66.00;;;;;;4844590;29;20117;-76
2023/04/02 13:48:51;;;;;;;4.18;0.50;;;14.80;66.00;;;;;;4843970;29;20046;-75
2023/04/02 13:51:18;;;;;;;3.08;0.40;;;14.90;66.10;;;;;;4844273;29;20058;-75
2023/04/02 13:53:51;;;;;;;3.33;0.30;;;14.90;66.10;;;;;;4843692;29;20054;-75
2023/04/02 13:56:18;;;;;;;2.15;0.40;;;14.90;66.10;;;;;;4844285;29;20053;-76
2023/04/02 13:58:45;;;;;;;1.92;0.30;;;14.80;66.10;;;;;;4844319;29;20050;-76
2023/04/02 14:01:12;;;;;;;2.83;0.40;;;14.80;66.10;;;;;;4827977;29;20062;-77
2023/04/02 14:03:37;;;;;;;2.13;0.30;;;14.80;66.10;;;;;;4844053;29;20046;-77
2023/04/02 14:06:17;;;;;;;4.97;0.45;;;14.90;66.30;;;;;;4844249;29;20060;-75
2023/04/02 14:09:15;;;;;;;1.90;0.20;;;14.80;66.20;;;;;;4844346;29;20046;-75
2023/04/02 14:12:05;;;;;;;1.60;0.22;;;14.80;66.20;;;;;;4844188;29;20206;-75
2023/04/02 14:15:19;;;;;;;1.40;0.47;;;14.80;66.30;;;;;;4844099;29;20104;-75
2023/04/02 14:18:11;;;;;;;1.30;0.10;;;14.80;66.20;;;;;;4823036;29;20432;-76
2023/04/02 14:20:55;;;;;;;3.97;0.55;;;14.80;66.20;;;;;;4825858;29;20508;-82
2023/04/02 14:23:36;;;;;;;5.55;1.35;;;14.80;66.30;;;;;;4839278;29;20492;-77
2023/04/02 14:26:15;;;;;;;13.68;1.67;;;14.90;66.40;;;;;;4827107;29;20154;-76
2023/04/02 14:28:56;;;;;;;14.48;1.73;;;14.90;66.50;;;;;;4828140;29;20371;-77
2023/04/02 14:31:47;;;;;;;12.90;1.50;;;14.90;66.50;;;;;;4843991;29;20432;-78
2023/04/02 14:34:30;;;;;;;15.35;3.00;;;14.90;66.60;;;;;;4787138;29;20153;-79
2023/04/02 14:37:20;;;;;;;20.98;2.20;;;14.90;66.70;;;;;;4843399;29;20116;-78
2023/04/02 14:40:12;;;;;;;20.75;2.65;;;15.00;67.00;;;;;;4843596;29;20052;-77
2023/04/02 14:43:00;;;;;;;22.15;3.55;;;15.10;67.10;;;;;;4843580;29;20066;-75
2023/04/02 14:45:52;;;;;;;18.92;3.10;;;15.30;67.30;;;;;;4843686;29;20046;-79
2023/04/02 14:48:50;;;;;;;16.50;2.70;;;15.50;67.30;;;;;;4826742;29;20053;-77
2023/04/02 14:51:25;;;;;;;14.38;2.55;;;15.60;67.50;;;;;;4823795;29;20195;-79
2023/04/02 14:54:00;;;;;;;14.07;3.10;;;15.70;67.50;;;;;;4843438;29;20050;-77
2023/04/02 14:56:26;;;;;;;16.42;3.13;;;15.80;67.50;;;;;;4828276;29;20406;-75
2023/04/02 14:59:20;;;;;;;18.73;2.75;;;15.90;67.70;;;;;;4827332;29;20058;-79
2023/04/02 15:01:51;;;;;;;18.05;2.60;;;15.90;68.10;;;;;;4810432;29;20061;-82
2023/04/02 15:04:40;;;;;;;24.45;2.55;;;15.90;68.10;;;;;;4827052;29;20391;-81
2023/04/02 15:07:22;;;;;;;25.73;4.88;;;15.90;69.00;;;;;;4846725;29;20102;-80
2023/04/02 15:10:19;;;;;;;25.85;4.30;;;16.00;70.50;;;;;;4829986;29;20054;-80
2023/04/02 15:12:46;;;;;;;31.20;4.28;;;16.00;70.80;;;;;;4827211;29;20379;-78
2023/04/02 15:15:38;;;;;;;33.58;4.32;;;16.00;71.50;;;;;;4847022;29;20412;-82
2023/04/02 15:18:08;;;;;;;21.45;4.30;;;16.10;71.60;;;;;;4838172;29;20379;-78
2023/04/02 15:21:14;;;;;;;30.77;4.13;;;16.10;71.60;;;;;;4829971;29;20122;-80
2023/04/02 15:23:46;;;;;;;38.65;4.88;;;16.10;71.40;;;;;;4846370;29;20081;-75
2023/04/02 15:26:20;;;;;;;21.17;3.72;;;16.10;70.90;;;;;;4846592;29;20132;-78
2023/04/02 15:28:57;;;;;;;24.23;3.42;;;16.10;70.30;;;;;;4846495;29;20042;-81
2023/04/02 15:31:26;;;;;;;28.58;3.47;;;16.10;70.30;;;;;;4845908;29;20045;-80
2023/04/02 15:33:57;;;;;;;31.00;3.83;;;16.00;69.60;;;;;;4829728;29;20467;-77
2023/04/02 15:36:22;;;;;;;20.83;3.45;;;16.00;70.00;;;;;;4845413;29;20042;-79
2023/04/02 15:38:58;;;;;;;28.08;4.15;;;16.00;70.10;;;;;;4829858;29;20079;-80
2023/04/02 15:41:26;;;;;;;30.35;4.38;;;16.00;70.00;;;;;;4815036;29;20417;-80
2023/04/02 15:44:15;;;;;;;28.65;3.70;;;16.00;70.50;;;;;;4845750;29;20077;-82
2023/04/02 15:46:54;;;;;;;30.92;4.35;;;16.00;70.80;;;;;;4830162;29;20069;-81
2023/04/02 15:49:50;;;;;;;25.95;3.78;;;15.90;71.00;;;;;;4814783;29;20053;-84
2023/04/02 15:52:32;;;;;;;16.77;3.58;;;15.90;71.20;;;;;;4848349;29;20060;-73
2023/04/02 15:55:23;;;;;;;10.07;2.30;;;15.90;68.40;;;;;;4854445;29;20057;-75
2023/04/02 15:58:28;;;;;;;9.82;1.45;;;15.70;64.30;;;;;;4850232;29;20057;-73
2023/04/02 16:01:09;;;;;;;17.75;1.83;;;15.50;60.90;;;;;;4829766;29;20365;-79
2023/04/02 16:03:40;;;;;;;15.43;2.10;;;15.50;65.50;;;;;;4845801;29;20369;-81
2023/04/02 16:06:15;;;;;;;21.45;2.28;;;15.60;66.00;;;;;;4845784;29;20053;-79
2023/04/02 16:08:56;;;;;;;23.00;2.83;;;15.60;66.60;;;;;;4846447;29;20641;-82
2023/04/02 16:11:23;;;;;;;16.75;2.17;;;15.60;67.20;;;;;;4829346;29;20050;-80
2023/04/02 16:13:51;;;;;;;21.05;2.45;;;15.70;67.50;;;;;;4829313;29;20050;-76
2023/04/02 16:16:31;;;;;;;23.30;3.30;;;15.70;67.90;;;;;;4846131;29;20093;-81
2023/04/02 16:19:32;;;;;;;31.38;3.67;;;15.70;68.40;;;;;;4829629;29;20045;-81
2023/04/02 16:22:13;;;;;;;21.45;2.70;;;15.70;68.70;;;;;;4830305;29;20524;-81
2023/04/02 16:24:41;;;;;;;21.90;3.50;;;15.70;68.90;;;;;;4814984;29;20443;-84
2023/04/02 16:27:34;;;;;;;19.10;2.53;;;15.70;69.00;;;;;;4814623;29;20145;-86
2023/04/02 16:30:47;;;;;;;21.85;2.60;;;15.70;69.20;;;;;;4845438;29;20049;-81
2023/04/02 16:34:01;;;;;;;25.25;3.17;;;15.70;69.60;;;;;;4822660;29;20058;-78
2023/04/02 16:36:27;;;;;;;20.77;2.88;;;15.80;69.90;;;;;;4825585;29;20054;-79
2023/04/02 16:38:57;;;;;;;18.48;2.45;;;15.80;69.70;;;;;;4825914;29;20391;-81
2023/04/02 16:41:33;;;;;;;21.55;3.47;;;15.80;69.80;;;;;;4810933;29;20061;-77
2023/04/02 16:44:16;;;;;;;26.30;4.43;;;15.80;69.90;;;;;;4825568;29;20058;-80
2023/04/02 16:46:50;;;;;;;34.20;3.70;;;15.80;69.70;;;;;;4811375;29;20085;-80
2023/04/02 16:49:28;;;;;;;13.85;1.73;;;15.80;67.40;;;;;;4821163;29;20081;-81
2023/04/02 16:52:06;;;;;;;5.68;0.95;;;15.80;65.80;;;;;;4813930;29;20045;-81
2023/04/02 16:54:47;;;;;;;12.15;1.17;;;15.80;63.40;;;;;;4829512;29;20056;-80
2023/04/02 16:57:25;;;;;;;15.90;1.58;;;15.80;62.20;;;;;;4844358;29;20088;-77
2023/04/02 17:00:09;;;;;;;22.35;2.47;;;15.80;62.30;;;;;;4828506;29;20052;-80
2023/04/02 17:02:56;;;;;;;21.10;2.40;;;15.70;61.70;;;;;;4844976;29;20124;-80
2023/04/02 17:05:31;;;;;;;15.13;2.28;;;15.70;62.10;;;;;;4844675;29;20050;-77
